Wilson Mersin — P3PA6 — position and weather

sailwx.info

Track history (hours):
 
Tides and Currents Weather Stations Pressure Air Temp Water Temp Dewpoint Dewpoint Depression Visibility Wind Speed Wind Dir Waves Ship Positions

Wilson Mersin

Last reported at 2016-Sep-24 14:32 UTC. Time now 2016-Sep-26 10:32 UTC.
Position N 49°28' E 000°49'.

Length 107 m; draft 6.9 m.

Type: Cargo ship. MMSI: 210072000.

Date/timePositionNaut miles runAvg speedWind from/ knotsBaromVisibWave heightAir tempDewpointWater temp
2016-Sep-24 14:32N 49°28' E 000°49'15 7.9
2016-Sep-24 12:33N 49°27' E 000°25'20 9.9
2016-Sep-24 10:34N 49°29' W 000°05'0 0.1
2016-Sep-24 09:31N 49°29' W 000°05'0 0.0
2016-Sep-24 03:31N 49°29' W 000°05'0 0.0
2016-Sep-24 02:31N 49°29' W 000°05'0 0.0
2016-Sep-24 01:31N 49°29' W 000°05'0 0.0
2016-Sep-24 00:31N 49°29' W 000°05'0 0.0
2016-Sep-23 19:31N 49°29' W 000°05'0 0.0
2016-Sep-23 17:31N 49°29' W 000°05'0 0.1
2016-Sep-23 16:31N 49°29' W 000°05'0 0.0
2016-Sep-23 15:31N 49°29' W 000°05'0 0.0
2016-Sep-23 13:31N 49°29' W 000°05'0 0.1
2016-Sep-23 09:31N 49°28' W 000°06'0 0.0
2016-Sep-23 06:31N 49°28' W 000°06'0 0.0
2016-Sep-23 04:31N 49°28' W 000°06'0 0.1
2016-Sep-23 03:31N 49°28' W 000°06'0 0.1
2016-Sep-23 02:31N 49°28' W 000°06'0 0.0
2016-Sep-23 01:31N 49°28' W 000°06'0 0.0
2016-Sep-23 00:31N 49°28' W 000°06'0 0.0
2016-Sep-22 23:32N 49°28' W 000°06'3 1.2
2016-Sep-22 20:33N 49°30' W 000°10'  
2016-Sep-20 14:31N 57°46' E 009°58'1010.5
2016-Sep-20 13:33N 57°49' E 010°16'14 4.7
2016-Sep-20 10:31N 57°41' E 010°38'0 0.2
2016-Sep-20 08:34N 57°41' E 010°38'10 9.7
2016-Sep-20 07:33N 57°37' E 010°55'1111.2
2016-Sep-20 06:33N 57°32' E 011°14'4410.9
2016-Sep-20 02:33N 56°53' E 011°49'7310.5
2016-Sep-19 19:34N 55°46' E 012°42'10 9.5
2016-Sep-19 18:34N 55°36' E 012°42'19 9.4
2016-Sep-19 16:34N 55°18' E 012°44'2511.1
2016-Sep-19 14:16N 55°15' E 013°29'811.6
2016-Sep-19 13:32N 55°15' E 013°44'1111.5
2016-Sep-19 12:33N 55°14' E 014°03'1010.1
2016-Sep-19 11:33N 55°17' E 014°20'2211.0
2016-Sep-19 09:33N 55°31' E 014°50'203 8.7
2016-Sep-18 10:18N 58°40' E 017°07'0 0.0
2016-Sep-18 09:33N 58°40' E 017°07'0 0.0
2016-Sep-18 02:33N 58°40' E 017°07'0 0.0
2016-Sep-18 01:30N 58°40' E 017°07'0 0.0
2016-Sep-18 00:33N 58°40' E 017°07'0 0.0
2016-Sep-17 22:30N 58°40' E 017°07'0 0.0
2016-Sep-17 21:33N 58°40' E 017°07'0 0.0
2016-Sep-17 20:33N 58°40' E 017°07'0 0.0
2016-Sep-17 19:15N 58°40' E 017°07'0 0.0
2016-Sep-16 15:21N 58°40' E 017°07'0 0.0
2016-Sep-16 12:30N 58°40' E 017°07'0 0.0
2016-Sep-16 09:33N 58°40' E 017°07'0 0.0
2016-Sep-16 07:33N 58°40' E 017°07'0 0.0
2016-Sep-16 03:24N 58°40' E 017°07'0 0.0
2016-Sep-16 02:33N 58°40' E 017°07'0 0.0
2016-Sep-16 00:33N 58°40' E 017°07'0 0.0
2016-Sep-15 22:33N 58°40' E 017°07'0 0.0
2016-Sep-15 21:30N 58°40' E 017°07'5 5.3
2016-Sep-15 20:33N 58°37' E 017°15'10 0.6
2016-Sep-15 04:32N 58°36' E 017°34'0 0.0
2016-Sep-15 03:32N 58°36' E 017°34'0 0.0
2016-Sep-15 01:32N 58°36' E 017°34'0 0.0
2016-Sep-14 22:23N 58°36' E 017°34'0 0.0
2016-Sep-14 21:32N 58°36' E 017°34'0 0.0
2016-Sep-14 17:32N 58°36' E 017°34'0 0.0
2016-Sep-14 16:32N 58°36' E 017°34'  
Track history (hours):
 
Tides and Currents Weather Stations Pressure Air Temp Water Temp Dewpoint Dewpoint Depression Visibility Wind Speed Wind Dir Waves Ship Positions

Wilson Mersin

Last reported at 2016-Sep-24 14:32 UTC. Time now 2016-Sep-26 10:32 UTC.
Position N 49°28' E 000°49'.

Length 107 m; draft 6.9 m.

Type: Cargo ship. MMSI: 210072000.

Date/timePositionNaut miles runAvg speedWind from/ knotsBaromVisibWave heightAir tempDewpointWater temp
2016-Sep-24 14:32N 49°28' E 000°49'15 7.9
2016-Sep-24 12:33N 49°27' E 000°25'20 9.9
2016-Sep-24 10:34N 49°29' W 000°05'0 0.1
2016-Sep-24 09:31N 49°29' W 000°05'0 0.0
2016-Sep-24 03:31N 49°29' W 000°05'0 0.0
2016-Sep-24 02:31N 49°29' W 000°05'0 0.0
2016-Sep-24 01:31N 49°29' W 000°05'0 0.0
2016-Sep-24 00:31N 49°29' W 000°05'0 0.0
2016-Sep-23 19:31N 49°29' W 000°05'0 0.0
2016-Sep-23 17:31N 49°29' W 000°05'0 0.1
2016-Sep-23 16:31N 49°29' W 000°05'0 0.0
2016-Sep-23 15:31N 49°29' W 000°05'0 0.0
2016-Sep-23 13:31N 49°29' W 000°05'0 0.1
2016-Sep-23 09:31N 49°28' W 000°06'0 0.0
2016-Sep-23 06:31N 49°28' W 000°06'0 0.0
2016-Sep-23 04:31N 49°28' W 000°06'0 0.1
2016-Sep-23 03:31N 49°28' W 000°06'0 0.1
2016-Sep-23 02:31N 49°28' W 000°06'0 0.0
2016-Sep-23 01:31N 49°28' W 000°06'0 0.0
2016-Sep-23 00:31N 49°28' W 000°06'0 0.0
2016-Sep-22 23:32N 49°28' W 000°06'3 1.2
2016-Sep-22 20:33N 49°30' W 000°10'  
2016-Sep-20 14:31N 57°46' E 009°58'1010.5
2016-Sep-20 13:33N 57°49' E 010°16'14 4.7
2016-Sep-20 10:31N 57°41' E 010°38'0 0.2
2016-Sep-20 08:34N 57°41' E 010°38'10 9.7
2016-Sep-20 07:33N 57°37' E 010°55'1111.2
2016-Sep-20 06:33N 57°32' E 011°14'4410.9
2016-Sep-20 02:33N 56°53' E 011°49'7310.5
2016-Sep-19 19:34N 55°46' E 012°42'10 9.5
2016-Sep-19 18:34N 55°36' E 012°42'19 9.4
2016-Sep-19 16:34N 55°18' E 012°44'2511.1
2016-Sep-19 14:16N 55°15' E 013°29'811.6
2016-Sep-19 13:32N 55°15' E 013°44'1111.5
2016-Sep-19 12:33N 55°14' E 014°03'1010.1
2016-Sep-19 11:33N 55°17' E 014°20'2211.0
2016-Sep-19 09:33N 55°31' E 014°50'203 8.7
2016-Sep-18 10:18N 58°40' E 017°07'0 0.0
2016-Sep-18 09:33N 58°40' E 017°07'0 0.0
2016-Sep-18 02:33N 58°40' E 017°07'0 0.0
2016-Sep-18 01:30N 58°40' E 017°07'0 0.0
2016-Sep-18 00:33N 58°40' E 017°07'0 0.0
2016-Sep-17 22:30N 58°40' E 017°07'0 0.0
2016-Sep-17 21:33N 58°40' E 017°07'0 0.0
2016-Sep-17 20:33N 58°40' E 017°07'0 0.0
2016-Sep-17 19:15N 58°40' E 017°07'0 0.0
2016-Sep-16 15:21N 58°40' E 017°07'0 0.0
2016-Sep-16 12:30N 58°40' E 017°07'0 0.0
2016-Sep-16 09:33N 58°40' E 017°07'0 0.0
2016-Sep-16 07:33N 58°40' E 017°07'0 0.0
2016-Sep-16 03:24N 58°40' E 017°07'0 0.0
2016-Sep-16 02:33N 58°40' E 017°07'0 0.0
2016-Sep-16 00:33N 58°40' E 017°07'0 0.0
2016-Sep-15 22:33N 58°40' E 017°07'0 0.0
2016-Sep-15 21:30N 58°40' E 017°07'5 5.3
2016-Sep-15 20:33N 58°37' E 017°15'10 0.6
2016-Sep-15 04:32N 58°36' E 017°34'0 0.0
2016-Sep-15 03:32N 58°36' E 017°34'0 0.0
2016-Sep-15 01:32N 58°36' E 017°34'0 0.0
2016-Sep-14 22:23N 58°36' E 017°34'0 0.0
2016-Sep-14 21:32N 58°36' E 017°34'0 0.0
2016-Sep-14 17:32N 58°36' E 017°34'0 0.0
2016-Sep-14 16:32N 58°36' E 017°34'  

Dump ship's entire track history